createdAt,value
2024-02-01T00:00:06.131Z,-2.58
2024-02-01T00:02:33.642Z,-2.55
2024-02-01T00:05:01.185Z,-2.51
2024-02-01T00:07:29.238Z,-3.47
2024-02-01T00:09:56.617Z,-2.66
2024-02-01T00:12:24.007Z,-3.29
2024-02-01T00:14:51.352Z,-2.58
2024-02-01T00:17:18.784Z,-2.72
2024-02-01T00:19:46.000Z,-2.68
2024-02-01T00:22:19.802Z,-2.73
2024-02-01T00:24:55.416Z,-2.48
2024-02-01T00:27:22.693Z,-3.09
2024-02-01T00:29:50.018Z,-2.74
2024-02-01T00:32:17.378Z,-2.76
2024-02-01T00:34:45.876Z,-4.04
2024-02-01T00:37:13.212Z,-2.72
2024-02-01T00:39:40.570Z,-2.59
2024-02-01T00:42:07.978Z,-2.86
2024-02-01T00:44:36.347Z,-2.96
2024-02-01T00:47:03.939Z,-2.73
2024-02-01T00:49:31.434Z,-2.83
2024-02-01T00:51:59.560Z,-2.97
2024-02-01T00:54:27.364Z,-2.87
2024-02-01T00:56:54.534Z,-2.59
2024-02-01T00:59:22.147Z,-2.66
2024-02-01T01:01:49.564Z,-3.14
2024-02-01T01:04:17.600Z,-3.45
2024-02-01T01:06:44.999Z,-4.12
2024-02-01T01:09:12.403Z,-3.41
2024-02-01T01:11:39.934Z,-2.99
2024-02-01T01:14:07.410Z,-2.79
2024-02-01T01:16:34.836Z,-2.66
2024-02-01T01:19:02.385Z,-2.90
2024-02-01T01:21:30.010Z,-2.70
2024-02-01T01:23:57.293Z,-3.36
2024-02-01T01:26:26.743Z,-2.71
2024-02-01T01:28:54.803Z,-3.16
2024-02-01T01:31:22.112Z,-3.08
2024-02-01T01:33:49.505Z,-3.12
2024-02-01T01:36:16.931Z,-3.01
2024-02-01T01:38:44.358Z,-3.14
2024-02-01T01:41:11.668Z,-3.28
2024-02-01T01:43:38.986Z,-3.39
2024-02-01T01:46:06.616Z,-3.26
2024-02-01T01:48:35.498Z,-2.87
2024-02-01T01:51:03.518Z,-4.33
2024-02-01T01:53:35.768Z,-3.84
2024-02-01T01:56:03.276Z,-3.13
2024-02-01T01:58:35.046Z,-3.49
2024-02-01T02:01:02.712Z,-3.12
2024-02-01T02:03:34.446Z,-3.09
2024-02-01T02:06:01.890Z,-3.38
2024-02-01T02:08:29.242Z,-3.41
2024-02-01T02:10:56.789Z,-3.28
2024-02-01T02:13:24.068Z,-3.21
2024-02-01T02:15:51.350Z,-3.35
2024-02-01T02:18:18.689Z,-3.20
2024-02-01T02:20:48.830Z,-3.03
2024-02-01T02:23:16.323Z,-3.04
2024-02-01T02:25:43.655Z,-3.39
2024-02-01T02:28:10.936Z,-3.39
2024-02-01T02:30:41.301Z,-3.07
2024-02-01T02:33:08.739Z,-3.20
2024-02-01T02:35:36.179Z,-3.11
2024-02-01T02:38:03.651Z,-3.35
2024-02-01T02:40:31.323Z,-3.32
2024-02-01T02:42:58.389Z,-3.13
2024-02-01T02:45:25.881Z,-3.32
2024-02-01T02:47:53.561Z,-3.62
2024-02-01T02:50:20.645Z,-3.15
2024-02-01T02:52:48.225Z,-3.40
2024-02-01T02:55:15.625Z,-3.59
2024-02-01T02:57:42.914Z,-3.46
2024-02-01T03:00:12.013Z,-3.71
2024-02-01T03:02:39.947Z,-3.32
2024-02-01T03:05:08.056Z,-3.47
2024-02-01T03:07:35.680Z,-3.23
2024-02-01T03:10:06.247Z,-3.41
2024-02-01T03:12:33.734Z,-3.72
2024-02-01T03:15:01.149Z,-3.84
2024-02-01T03:17:28.724Z,-3.83
2024-02-01T03:19:56.225Z,-3.83
2024-02-01T03:22:26.985Z,-3.48
2024-02-01T03:25:01.521Z,-3.54
2024-02-01T03:27:30.427Z,-3.81
2024-02-01T03:30:01.165Z,-3.60
2024-02-01T03:32:31.965Z,-3.57
2024-02-01T03:34:59.924Z,-3.66
2024-02-01T03:37:29.684Z,-3.77
2024-02-01T03:39:57.174Z,-4.35
2024-02-01T03:42:24.518Z,-3.73
2024-02-01T03:44:52.006Z,-3.53
2024-02-01T03:47:19.409Z,-3.91
2024-02-01T03:49:46.686Z,-4.29
2024-02-01T03:52:22.125Z,-3.69
2024-02-01T03:54:50.030Z,-3.54
2024-02-01T03:57:17.657Z,-3.70
2024-02-01T03:59:45.308Z,-3.40
2024-02-01T04:02:16.258Z,-3.70
2024-02-01T04:04:47.371Z,-3.41
2024-02-01T04:07:18.337Z,-3.40
2024-02-01T04:09:48.466Z,-4.66
2024-02-01T04:12:17.221Z,-4.77
2024-02-01T04:14:44.867Z,-3.62
2024-02-01T04:17:12.291Z,-3.69
2024-02-01T04:19:39.699Z,-3.61
2024-02-01T04:22:07.257Z,-3.63
2024-02-01T04:24:34.962Z,-3.54
2024-02-01T04:27:02.691Z,-4.59
2024-02-01T04:29:30.069Z,-3.71
2024-02-01T04:31:57.386Z,-4.16
2024-02-01T04:34:25.069Z,-4.49
2024-02-01T04:36:52.224Z,-3.57
2024-02-01T04:39:19.591Z,-4.00
2024-02-01T04:41:47.074Z,-4.60
2024-02-01T04:44:14.542Z,-4.78
2024-02-01T04:46:41.938Z,-3.76
2024-02-01T04:49:14.283Z,-4.73
2024-02-01T04:51:43.296Z,-3.44
2024-02-01T04:54:11.983Z,-3.42
2024-02-01T04:56:41.822Z,-3.89
2024-02-01T04:59:09.433Z,-4.41
2024-02-01T05:01:36.905Z,-4.23
2024-02-01T05:04:04.543Z,-3.78
2024-02-01T05:06:31.965Z,-3.33
2024-02-01T05:08:59.378Z,-3.57
2024-02-01T05:11:26.873Z,-3.85
2024-02-01T05:13:54.375Z,-3.78
2024-02-01T05:16:21.928Z,-3.51
2024-02-01T05:18:49.717Z,-3.42
2024-02-01T05:21:17.593Z,-3.52
2024-02-01T05:23:50.461Z,-3.42
2024-02-01T05:26:17.925Z,-3.54
2024-02-01T05:28:45.468Z,-3.31
2024-02-01T05:31:16.803Z,-3.46
2024-02-01T05:33:44.266Z,-3.32
2024-02-01T05:36:11.597Z,-3.17
2024-02-01T05:38:41.932Z,-3.43
2024-02-01T05:41:14.737Z,-3.72
2024-02-01T05:43:45.178Z,-3.25
2024-02-01T05:46:15.862Z,-3.39
2024-02-01T05:48:44.700Z,-3.66
2024-02-01T05:51:12.152Z,-3.34
2024-02-01T05:53:40.279Z,-3.14
2024-02-01T05:56:07.868Z,-3.58
2024-02-01T05:58:35.230Z,-3.84
2024-02-01T06:01:04.498Z,-4.10
2024-02-01T06:03:31.946Z,-3.65
2024-02-01T06:05:59.548Z,-3.47
2024-02-01T06:08:26.863Z,-3.19
2024-02-01T06:10:54.099Z,-3.04
2024-02-01T06:13:21.466Z,-4.22
2024-02-01T06:15:53.827Z,-3.26
2024-02-01T06:18:21.266Z,-3.94
2024-02-01T06:20:48.781Z,-2.81
2024-02-01T06:23:16.045Z,-3.15
2024-02-01T06:25:44.940Z,-3.02
2024-02-01T06:28:13.803Z,-2.98
2024-02-01T06:30:41.169Z,-3.11
2024-02-01T06:33:08.579Z,-3.09
2024-02-01T06:35:36.059Z,-3.12
2024-02-01T06:38:06.635Z,-3.29
2024-02-01T06:40:50.374Z,-3.05
2024-02-01T06:43:42.765Z,-2.68
2024-02-01T06:46:20.384Z,-2.53
2024-02-01T06:48:53.030Z,-2.80
2024-02-01T06:51:27.863Z,-2.51
2024-02-01T06:54:00.277Z,-2.49
2024-02-01T06:56:47.733Z,-2.72
2024-02-01T06:59:35.618Z,-2.70
2024-02-01T07:02:29.255Z,-2.72
2024-02-01T07:05:05.518Z,-3.52
2024-02-01T07:07:44.132Z,-2.50
2024-02-01T07:10:22.492Z,-2.56
2024-02-01T07:13:08.889Z,-2.48
2024-02-01T07:15:36.794Z,-2.26
2024-02-01T07:18:08.713Z,-2.71
2024-02-01T07:20:38.097Z,-2.75
2024-02-01T07:23:32.131Z,-2.64
2024-02-01T07:26:18.870Z,-2.35
2024-02-01T07:29:15.975Z,-2.47
2024-02-01T07:32:02.057Z,-2.12
2024-02-01T07:34:47.616Z,-2.20
2024-02-01T07:37:33.235Z,-2.21
2024-02-01T07:40:19.107Z,-2.05
2024-02-01T07:43:05.114Z,-2.02
2024-02-01T07:45:50.712Z,-2.19
2024-02-01T07:48:36.934Z,-1.83
2024-02-01T07:51:23.064Z,-2.07
2024-02-01T07:54:08.809Z,-1.98
2024-02-01T07:56:54.438Z,-1.87
2024-02-01T07:59:30.858Z,-1.95
2024-02-01T08:02:15.134Z,-1.82
2024-02-01T08:05:01.106Z,-1.88
2024-02-01T08:07:50.068Z,-1.76
2024-02-01T08:10:21.126Z,-1.92
2024-02-01T08:12:49.412Z,-1.96
2024-02-01T08:15:21.023Z,-1.56
2024-02-01T08:17:49.592Z,-1.93
2024-02-01T08:20:17.136Z,-1.75
2024-02-01T08:22:44.957Z,-1.83
2024-02-01T08:25:13.500Z,-1.72
2024-02-01T08:27:50.911Z,-1.46
2024-02-01T08:30:20.375Z,-1.62
2024-02-01T08:32:49.795Z,-1.43
2024-02-01T08:35:18.509Z,-1.81
2024-02-01T08:37:46.657Z,-1.36
2024-02-01T08:40:17.874Z,-1.34
2024-02-01T08:42:46.198Z,-1.47
2024-02-01T08:45:15.298Z,-1.42
2024-02-01T08:50:12.332Z,-1.22
2024-02-01T08:52:49.865Z,-1.56
2024-02-01T08:55:19.414Z,-1.47
2024-02-01T08:57:47.481Z,-1.37
2024-02-01T09:00:33.724Z,-1.11
2024-02-01T09:03:05.479Z,-1.57
2024-02-01T09:05:41.617Z,-1.28
2024-02-01T09:08:16.872Z,-1.49
2024-02-01T09:11:02.758Z,-1.28
2024-02-01T09:13:31.685Z,-1.25
2024-02-01T09:16:00.028Z,-1.14
2024-02-01T09:18:27.883Z,-1.17
2024-02-01T09:20:55.578Z,-1.13
2024-02-01T09:23:25.543Z,-1.00
2024-02-01T09:25:52.971Z,-1.14
2024-02-01T09:28:20.240Z,-1.02
2024-02-01T09:30:49.326Z,-1.21
2024-02-01T09:33:18.838Z,-1.23
2024-02-01T09:35:47.441Z,-1.02
2024-02-01T09:38:15.429Z,-1.33
2024-02-01T09:40:45.484Z,-1.33
2024-02-01T09:43:23.562Z,-1.01
2024-02-01T09:46:03.918Z,-1.00
2024-02-01T09:48:33.045Z,-1.02
2024-02-01T09:51:00.541Z,-1.13
2024-02-01T09:53:28.797Z,-0.94
2024-02-01T09:56:01.944Z,-0.94
2024-02-01T09:58:30.481Z,-1.12
2024-02-01T10:00:57.898Z,-1.09
2024-02-01T10:03:27.872Z,-0.88
2024-02-01T10:05:58.299Z,-1.00
2024-02-01T10:08:27.175Z,-0.87
2024-02-01T10:10:54.819Z,-1.00
2024-02-01T10:13:33.091Z,-0.83
2024-02-01T10:16:03.861Z,-0.84
2024-02-01T10:18:31.464Z,-1.08
2024-02-01T10:20:59.953Z,-1.08
2024-02-01T10:23:28.596Z,-1.13
2024-02-01T10:25:57.201Z,-1.22
2024-02-01T10:28:27.444Z,-1.13
2024-02-01T10:30:54.979Z,-1.16
2024-02-01T10:33:29.433Z,-0.97
2024-02-01T10:36:01.605Z,-1.18
2024-02-01T10:38:29.512Z,-1.02
2024-02-01T10:41:03.516Z,-1.24
2024-02-01T10:43:32.824Z,-1.27
2024-02-01T10:46:11.625Z,-1.18
2024-02-01T10:48:48.529Z,-1.08
2024-02-01T10:51:17.477Z,-1.15
2024-02-01T10:53:47.629Z,-1.04
2024-02-01T10:56:17.092Z,-1.29
2024-02-01T10:59:09.002Z,-1.48
2024-02-01T11:01:40.895Z,-1.44
2024-02-01T11:04:10.703Z,-1.58
2024-02-01T11:06:46.139Z,-1.21
2024-02-01T11:09:21.044Z,-1.71
2024-02-01T11:11:56.692Z,-1.56
2024-02-01T11:14:30.901Z,-1.49
2024-02-01T11:17:00.340Z,-1.60
2024-02-01T11:19:37.149Z,-1.72
2024-02-01T11:22:08.559Z,-2.26
2024-02-01T11:24:39.413Z,-2.11
2024-02-01T11:27:15.761Z,-2.21
2024-02-01T11:29:55.353Z,-2.37
2024-02-01T11:32:26.011Z,-2.42
2024-02-01T11:34:56.128Z,-2.58
2024-02-01T11:37:28.933Z,-2.75
2024-02-01T11:39:57.366Z,-2.44
2024-02-01T11:45:03.024Z,-3.00
2024-02-01T11:47:33.489Z,-2.73
2024-02-01T11:50:01.503Z,-2.85
2024-02-01T11:52:52.208Z,-2.63
2024-02-01T11:55:20.705Z,-3.30
2024-02-01T11:57:50.430Z,-3.01
2024-02-01T12:00:28.876Z,-3.02
2024-02-01T12:03:07.648Z,-3.12
2024-02-01T12:05:35.069Z,-3.59
2024-02-01T12:08:05.035Z,-3.50
2024-02-01T12:10:33.332Z,-3.20
2024-02-01T12:13:02.863Z,-3.56
2024-02-01T12:15:30.591Z,-3.78
2024-02-01T12:18:00.547Z,-3.80
2024-02-01T12:20:31.976Z,-3.62
2024-02-01T12:22:59.296Z,-3.84
2024-02-01T12:25:26.669Z,-4.14
2024-02-01T12:27:54.089Z,-3.57
2024-02-01T12:30:27.917Z,-3.95
2024-02-01T12:32:55.416Z,-3.76
2024-02-01T12:35:22.884Z,-3.64
2024-02-01T12:37:50.561Z,-3.95
2024-02-01T12:40:21.129Z,-4.01
2024-02-01T12:42:50.453Z,-4.01
2024-02-01T12:45:22.335Z,-3.94
2024-02-01T12:47:52.362Z,-4.09
2024-02-01T12:50:21.691Z,-4.35
2024-02-01T12:52:49.763Z,-3.85
2024-02-01T12:55:18.363Z,-3.88
2024-02-01T12:57:48.066Z,-3.89
2024-02-01T13:00:16.571Z,-4.02
2024-02-01T13:02:44.144Z,-4.03
2024-02-01T13:05:12.388Z,-4.02
2024-02-01T13:07:40.270Z,-4.70
2024-02-01T13:10:14.733Z,-4.02
2024-02-01T13:12:59.655Z,-3.86
2024-02-01T13:15:27.858Z,-3.84
2024-02-01T13:17:56.365Z,-4.35
2024-02-01T13:20:24.735Z,-3.79
2024-02-01T13:22:53.903Z,-4.10
2024-02-01T13:25:22.253Z,-3.71
2024-02-01T13:27:51.836Z,-3.70
2024-02-01T13:30:20.712Z,-3.65
2024-02-01T13:32:50.685Z,-3.86
2024-02-01T13:35:18.429Z,-4.54
2024-02-01T13:37:48.291Z,-4.02
2024-02-01T13:40:17.409Z,-3.54
2024-02-01T13:42:46.431Z,-3.51
2024-02-01T13:45:14.580Z,-3.84
2024-02-01T13:47:52.487Z,-3.47
2024-02-01T13:50:26.126Z,-3.99
2024-02-01T13:52:55.683Z,-3.62
2024-02-01T13:55:27.475Z,-3.89
2024-02-01T13:57:55.681Z,-3.35
2024-02-01T14:00:23.941Z,-3.56
2024-02-01T14:02:53.038Z,-3.68
2024-02-01T14:05:25.849Z,-3.76
2024-02-01T14:07:54.176Z,-3.25
2024-02-01T14:10:22.493Z,-3.53
2024-02-01T14:12:50.109Z,-3.95
2024-02-01T14:15:18.099Z,-3.17
2024-02-01T14:17:45.759Z,-3.17
2024-02-01T14:20:16.461Z,-3.12
2024-02-01T14:22:45.367Z,-3.10
2024-02-01T14:25:13.610Z,-3.38
2024-02-01T14:27:41.776Z,-3.37
2024-02-01T14:30:12.800Z,-3.18
2024-02-01T14:32:42.135Z,-3.02
2024-02-01T14:35:10.013Z,-3.51
2024-02-01T14:37:37.137Z,-3.00
2024-02-01T14:40:05.736Z,-3.35
2024-02-01T14:42:33.053Z,-3.83
2024-02-01T14:45:00.534Z,-3.16
2024-02-01T14:47:27.950Z,-3.43
2024-02-01T14:49:55.281Z,-3.25
2024-02-01T14:52:22.599Z,-3.46
2024-02-01T14:54:51.406Z,-3.06
2024-02-01T14:57:20.243Z,-3.16
2024-02-01T14:59:47.655Z,-2.88
2024-02-01T15:02:15.037Z,-3.26
2024-02-01T15:04:42.346Z,-3.28
2024-02-01T15:07:09.659Z,-3.81
2024-02-01T15:09:38.290Z,-2.91
2024-02-01T15:12:07.400Z,-3.61
2024-02-01T15:14:36.713Z,-2.72
2024-02-01T15:17:05.357Z,-2.53
2024-02-01T15:19:35.499Z,-2.53
2024-02-01T15:22:03.028Z,-2.95
2024-02-01T15:24:30.362Z,-2.64
2024-02-01T15:26:58.187Z,-2.54
2024-02-01T15:29:25.808Z,-2.96
2024-02-01T15:31:53.350Z,-3.03
2024-02-01T15:34:21.045Z,-3.11
2024-02-01T15:36:48.250Z,-2.08
2024-02-01T15:39:16.347Z,-1.96
2024-02-01T15:41:47.442Z,-1.91
2024-02-01T15:44:16.298Z,-1.98
2024-02-01T15:46:44.529Z,-2.02
2024-02-01T15:49:14.033Z,-2.07
2024-02-01T15:51:44.649Z,-1.52
2024-02-01T15:54:12.090Z,-1.32
2024-02-01T15:56:39.385Z,-1.80
2024-02-01T15:59:06.821Z,-1.19
2024-02-01T16:01:35.811Z,-1.24
2024-02-01T16:04:03.687Z,-1.05
2024-02-01T16:06:31.096Z,-1.25
2024-02-01T16:09:02.053Z,-0.96
2024-02-01T16:11:42.129Z,-1.75
2024-02-01T16:14:14.586Z,-1.00
2024-02-01T16:16:43.873Z,-1.50
2024-02-01T16:19:37.629Z,-0.90
2024-02-01T16:22:12.402Z,-1.04
2024-02-01T16:24:57.780Z,-0.94
2024-02-01T16:27:54.499Z,-0.98
2024-02-01T16:30:40.896Z,-1.07
2024-02-01T16:33:25.503Z,-1.15
2024-02-01T16:35:54.981Z,-1.74
2024-02-01T16:38:26.465Z,-1.93
2024-02-01T16:40:53.766Z,-1.99
2024-02-01T16:43:37.726Z,-1.43
2024-02-01T16:46:22.383Z,-1.55
2024-02-01T16:48:50.023Z,-2.51
2024-02-01T16:51:26.372Z,-2.08
2024-02-01T16:53:53.986Z,-2.11
2024-02-01T16:56:21.626Z,-2.26
2024-02-01T16:58:56.468Z,-1.93
2024-02-01T17:01:39.061Z,-1.98
2024-02-01T17:04:26.121Z,-2.12
2024-02-01T17:06:54.797Z,-2.60
2024-02-01T17:09:24.942Z,-2.42
2024-02-01T17:11:56.197Z,-2.93
2024-02-01T17:14:26.545Z,-2.18
2024-02-01T17:17:02.881Z,-2.19
2024-02-01T17:19:39.231Z,-2.55
2024-02-01T17:22:14.525Z,-2.25
2024-02-01T17:24:41.983Z,-3.11
2024-02-01T17:27:09.953Z,-2.50
2024-02-01T17:29:37.890Z,-2.78
2024-02-01T17:32:05.636Z,-2.60
2024-02-01T17:34:40.995Z,-2.36
2024-02-01T17:37:36.707Z,-2.52
2024-02-01T17:40:24.519Z,-2.42
2024-02-01T17:42:52.108Z,-2.74
2024-02-01T17:45:19.536Z,-2.46
2024-02-01T17:47:52.650Z,-4.17
2024-02-01T17:50:35.723Z,-3.19
2024-02-01T17:53:12.519Z,-2.55
2024-02-01T17:55:54.356Z,-2.87
2024-02-01T17:58:39.554Z,-2.62
2024-02-01T18:01:08.158Z,-2.68
2024-02-01T18:03:38.715Z,-2.97
2024-02-01T18:06:07.589Z,-2.73
2024-02-01T18:08:43.568Z,-2.77
2024-02-01T18:11:12.679Z,-2.99
2024-02-01T18:13:40.848Z,-3.05
2024-02-01T18:16:14.736Z,-3.01
2024-02-01T18:18:44.077Z,-3.12
2024-02-01T18:21:20.087Z,-3.53
2024-02-01T18:23:48.965Z,-3.30
2024-02-01T18:26:18.862Z,-3.44
2024-02-01T18:28:46.945Z,-3.19
2024-02-01T18:31:15.923Z,-3.13
2024-02-01T18:33:45.939Z,-4.03
2024-02-01T18:36:19.821Z,-3.22
2024-02-01T18:38:58.579Z,-3.26
2024-02-01T18:41:26.833Z,-3.60
2024-02-01T18:44:14.333Z,-4.17
2024-02-01T18:46:48.145Z,-3.39
2024-02-01T18:49:20.039Z,-3.42
2024-02-01T18:51:55.737Z,-3.46
2024-02-01T18:54:25.706Z,-3.49
2024-02-01T18:56:56.258Z,-3.53
2024-02-01T18:59:32.698Z,-3.55
2024-02-01T19:02:01.236Z,-3.85
2024-02-01T19:04:31.421Z,-3.79
2024-02-01T19:07:00.052Z,-3.64
2024-02-01T19:09:37.437Z,-3.65
2024-02-01T19:12:07.829Z,-3.65
2024-02-01T19:14:40.544Z,-3.96
2024-02-01T19:17:35.527Z,-3.67
2024-02-01T19:20:14.134Z,-3.90
2024-02-01T19:22:43.325Z,-3.70
2024-02-01T19:25:13.858Z,-4.36
2024-02-01T19:27:42.434Z,-3.99
2024-02-01T19:30:24.753Z,-4.25
2024-02-01T19:32:54.225Z,-4.21
2024-02-01T19:35:37.341Z,-3.74
2024-02-01T19:38:14.308Z,-3.76
2024-02-01T19:40:44.916Z,-3.79
2024-02-01T19:43:12.307Z,-3.97
2024-02-01T19:45:40.752Z,-4.16
2024-02-01T19:48:11.438Z,-3.87
2024-02-01T19:50:39.029Z,-4.05
2024-02-01T19:53:06.417Z,-4.40
2024-02-01T19:55:33.681Z,-3.98
2024-02-01T19:58:00.952Z,-4.13
2024-02-01T20:00:28.845Z,-4.47
2024-02-01T20:02:57.804Z,-5.15
2024-02-01T20:05:25.325Z,-5.07
2024-02-01T20:07:52.975Z,-4.12
2024-02-01T20:10:20.457Z,-4.10
2024-02-01T20:12:48.141Z,-5.06
2024-02-01T20:15:15.703Z,-5.04
2024-02-01T20:17:43.130Z,-5.32
2024-02-01T20:20:23.413Z,-4.18
2024-02-01T20:22:52.233Z,-6.46
2024-02-01T20:25:26.077Z,-5.33
2024-02-01T20:27:59.279Z,-4.73
2024-02-01T20:30:28.217Z,-4.35
2024-02-01T20:32:59.412Z,-5.04
2024-02-01T20:35:27.241Z,-5.04
2024-02-01T20:38:12.888Z,-4.79
2024-02-01T20:40:43.354Z,-4.48
2024-02-01T20:43:17.848Z,-5.22
2024-02-01T20:45:57.541Z,-5.08
2024-02-01T20:48:46.793Z,-4.73
2024-02-01T20:51:55.977Z,-4.79
2024-02-01T20:54:23.393Z,-4.96
2024-02-01T20:57:09.155Z,-5.35
2024-02-01T20:59:49.889Z,-4.80
2024-02-01T21:02:38.437Z,-4.85
2024-02-01T21:05:41.235Z,-5.30
2024-02-01T21:08:28.053Z,-4.98
2024-02-01T21:10:56.475Z,-5.60
2024-02-01T21:13:27.237Z,-5.52
2024-02-01T21:15:55.868Z,-5.25
2024-02-01T21:18:24.713Z,-5.66
2024-02-01T21:20:53.007Z,-5.16
2024-02-01T21:23:43.317Z,-5.03
2024-02-01T21:26:20.708Z,-5.05
2024-02-01T21:28:59.817Z,-5.43
2024-02-01T21:31:27.769Z,-5.06
2024-02-01T21:33:57.709Z,-5.05
2024-02-01T21:36:29.150Z,-6.14
2024-02-01T21:38:56.636Z,-5.45
2024-02-01T21:41:31.251Z,-5.88
2024-02-01T21:43:58.924Z,-6.51
2024-02-01T21:46:34.096Z,-6.18
2024-02-01T21:49:01.864Z,-5.51
2024-02-01T21:51:29.187Z,-5.06
2024-02-01T21:53:56.970Z,-5.78
2024-02-01T21:56:24.184Z,-5.14
2024-02-01T21:58:52.229Z,-6.19
2024-02-01T22:01:19.674Z,-5.41
2024-02-01T22:03:49.098Z,-5.93
2024-02-01T22:06:16.869Z,-5.93
2024-02-01T22:08:44.342Z,-6.18
2024-02-01T22:11:11.717Z,-5.30
2024-02-01T22:13:44.015Z,-5.81
2024-02-01T22:16:11.991Z,-5.54
2024-02-01T22:18:39.336Z,-5.40
2024-02-01T22:21:06.818Z,-6.12
2024-02-01T22:23:34.411Z,-6.00
2024-02-01T22:26:02.366Z,-5.87
2024-02-01T22:28:29.879Z,-6.34
2024-02-01T22:30:57.377Z,-7.39
2024-02-01T22:33:25.081Z,-7.31
2024-02-01T22:35:52.665Z,-6.72
2024-02-01T22:38:20.803Z,-6.80
2024-02-01T22:40:51.292Z,-6.12
2024-02-01T22:43:18.742Z,-6.25
2024-02-01T22:45:46.302Z,-5.69
2024-02-01T22:48:13.874Z,-6.30
2024-02-01T22:50:41.433Z,-6.47
2024-02-01T22:53:08.865Z,-6.39
2024-02-01T22:55:36.184Z,-6.37
2024-02-01T22:58:04.790Z,-6.17
2024-02-01T23:00:32.372Z,-6.58
2024-02-01T23:02:59.795Z,-5.89
2024-02-01T23:05:27.204Z,-6.15
2024-02-01T23:07:54.641Z,-6.26
2024-02-01T23:10:22.170Z,-6.18
2024-02-01T23:12:49.726Z,-5.70
2024-02-01T23:15:17.323Z,-6.29
2024-02-01T23:17:44.876Z,-6.50
2024-02-01T23:20:13.599Z,-5.87
2024-02-01T23:22:41.549Z,-6.64
2024-02-01T23:25:12.006Z,-5.74
2024-02-01T23:27:39.620Z,-6.41
2024-02-01T23:30:07.996Z,-6.67
2024-02-01T23:32:35.550Z,-6.18
2024-02-01T23:35:03.306Z,-6.25
2024-02-01T23:37:30.936Z,-6.40
2024-02-01T23:40:01.269Z,-6.43
2024-02-01T23:42:30.318Z,-6.25
2024-02-01T23:44:59.982Z,-5.88
2024-02-01T23:47:27.545Z,-6.06
2024-02-01T23:49:54.941Z,-6.06
2024-02-01T23:52:22.437Z,-6.97
2024-02-01T23:54:49.740Z,-6.11
2024-02-01T23:57:17.574Z,-6.44
2024-02-01T23:59:45.329Z,-7.32
